Los Angeles, California
Traffic Map
Current Weather Conditions
Los Angeles, California
Clear
Clear
19°
Feels Like: 19°
Wind Chill: 19° Ceiling: Unl
Heat Index: 19° Visibility: 10mi
Dew Point: 11° Wind: 0mph
Humidity: 57% Direction: ° ()
Pressure: 30.07in Gusts: 0mph
Raw Report DataKCQT 290347Z AUTO 00000KT 10SM CLR 19/11 A3007 RMK AO2 SLP183 T01940106 $
Traffic Incident Summary
Active as of:
Severity:
Category:
InformationThere was an issue retrieving the traffic information for this location. Please try a different location or try again shortly.
Advertisements
Track Severe Weather on mobile